sensor_id;sensor_type;location;lat;lon;timestamp;temperature;humidity
11399;DHT22;5755;48.116;11.608;2022-07-21T00:00:04;22.40;76.10
11399;DHT22;5755;48.116;11.608;2022-07-21T00:02:37;22.40;75.20
11399;DHT22;5755;48.116;11.608;2022-07-21T00:05:05;22.30;81.30
11399;DHT22;5755;48.116;11.608;2022-07-21T00:07:32;22.10;82.30
11399;DHT22;5755;48.116;11.608;2022-07-21T00:09:58;22.00;82.20
11399;DHT22;5755;48.116;11.608;2022-07-21T00:12:25;22.10;80.80
11399;DHT22;5755;48.116;11.608;2022-07-21T00:14:52;22.20;79.40
11399;DHT22;5755;48.116;11.608;2022-07-21T00:17:20;22.00;85.20
11399;DHT22;5755;48.116;11.608;2022-07-21T00:19:55;21.90;84.00
11399;DHT22;5755;48.116;11.608;2022-07-21T00:22:25;21.70;88.10
11399;DHT22;5755;48.116;11.608;2022-07-21T00:24:55;21.90;84.10
11399;DHT22;5755;48.116;11.608;2022-07-21T00:27:25;21.90;82.40
11399;DHT22;5755;48.116;11.608;2022-07-21T00:29:52;22.00;82.20
11399;DHT22;5755;48.116;11.608;2022-07-21T00:32:20;22.00;82.20
11399;DHT22;5755;48.116;11.608;2022-07-21T00:34:55;21.70;86.60
11399;DHT22;5755;48.116;11.608;2022-07-21T00:37:22;21.70;87.10
11399;DHT22;5755;48.116;11.608;2022-07-21T00:39:50;21.70;88.50
11399;DHT22;5755;48.116;11.608;2022-07-21T00:42:21;21.70;89.80
11399;DHT22;5755;48.116;11.608;2022-07-21T00:44:48;21.70;90.10
11399;DHT22;5755;48.116;11.608;2022-07-21T00:47:15;21.80;88.60
11399;DHT22;5755;48.116;11.608;2022-07-21T00:49:43;21.80;90.60
11399;DHT22;5755;48.116;11.608;2022-07-21T00:52:10;21.70;91.30
11399;DHT22;5755;48.116;11.608;2022-07-21T00:54:37;21.60;92.30
11399;DHT22;5755;48.116;11.608;2022-07-21T00:57:04;21.40;92.20
11399;DHT22;5755;48.116;11.608;2022-07-21T00:59:31;21.40;92.40
11399;DHT22;5755;48.116;11.608;2022-07-21T01:01:58;21.20;92.90
11399;DHT22;5755;48.116;11.608;2022-07-21T01:04:25;21.30;92.20
11399;DHT22;5755;48.116;11.608;2022-07-21T01:06:57;21.30;92.70
11399;DHT22;5755;48.116;11.608;2022-07-21T01:09:26;21.20;92.90
11399;DHT22;5755;48.116;11.608;2022-07-21T01:11:53;21.20;93.10
11399;DHT22;5755;48.116;11.608;2022-07-21T01:14:26;21.10;92.90
11399;DHT22;5755;48.116;11.608;2022-07-21T01:16:53;21.00;93.60
11399;DHT22;5755;48.116;11.608;2022-07-21T01:19:20;21.00;93.50
11399;DHT22;5755;48.116;11.608;2022-07-21T01:21:49;21.00;93.60
11399;DHT22;5755;48.116;11.608;2022-07-21T01:24:18;21.10;92.90
11399;DHT22;5755;48.116;11.608;2022-07-21T01:26:46;21.20;92.90
11399;DHT22;5755;48.116;11.608;2022-07-21T01:29:14;21.40;92.10
11399;DHT22;5755;48.116;11.608;2022-07-21T01:31:42;21.40;92.50
11399;DHT22;5755;48.116;11.608;2022-07-21T01:34:09;21.20;92.90
11399;DHT22;5755;48.116;11.608;2022-07-21T01:36:37;21.20;92.90
11399;DHT22;5755;48.116;11.608;2022-07-21T01:39:07;21.10;92.90
11399;DHT22;5755;48.116;11.608;2022-07-21T01:41:51;21.30;92.00
11399;DHT22;5755;48.116;11.608;2022-07-21T01:44:18;21.30;91.80
11399;DHT22;5755;48.116;11.608;2022-07-21T01:47:01;21.20;92.20
11399;DHT22;5755;48.116;11.608;2022-07-21T01:49:28;21.30;91.90
11399;DHT22;5755;48.116;11.608;2022-07-21T01:51:55;21.20;92.40
11399;DHT22;5755;48.116;11.608;2022-07-21T01:54:23;20.90;92.80
11399;DHT22;5755;48.116;11.608;2022-07-21T01:56:55;20.80;93.00
11399;DHT22;5755;48.116;11.608;2022-07-21T01:59:22;20.80;93.80
11399;DHT22;5755;48.116;11.608;2022-07-21T02:01:49;20.70;94.00
11399;DHT22;5755;48.116;11.608;2022-07-21T02:04:16;20.90;93.30
11399;DHT22;5755;48.116;11.608;2022-07-21T02:06:43;20.90;93.60
11399;DHT22;5755;48.116;11.608;2022-07-21T02:09:10;20.90;93.80
11399;DHT22;5755;48.116;11.608;2022-07-21T02:11:38;21.10;93.10
11399;DHT22;5755;48.116;11.608;2022-07-21T02:14:07;21.30;92.50
11399;DHT22;5755;48.116;11.608;2022-07-21T02:16:34;21.40;91.60
11399;DHT22;5755;48.116;11.608;2022-07-21T02:19:02;21.50;91.30
11399;DHT22;5755;48.116;11.608;2022-07-21T02:21:37;21.60;91.60
11399;DHT22;5755;48.116;11.608;2022-07-21T02:24:05;21.50;92.20
11399;DHT22;5755;48.116;11.608;2022-07-21T02:26:32;21.30;93.00
11399;DHT22;5755;48.116;11.608;2022-07-21T02:29:00;21.10;93.90
11399;DHT22;5755;48.116;11.608;2022-07-21T02:31:27;21.30;92.50
11399;DHT22;5755;48.116;11.608;2022-07-21T02:33:55;21.30;92.70
11399;DHT22;5755;48.116;11.608;2022-07-21T02:36:22;21.40;92.40
11399;DHT22;5755;48.116;11.608;2022-07-21T02:38:49;21.40;92.20
11399;DHT22;5755;48.116;11.608;2022-07-21T02:41:19;21.30;92.90
11399;DHT22;5755;48.116;11.608;2022-07-21T02:43:46;21.10;93.40
11399;DHT22;5755;48.116;11.608;2022-07-21T02:46:15;21.00;93.80
11399;DHT22;5755;48.116;11.608;2022-07-21T02:48:42;21.00;94.00
11399;DHT22;5755;48.116;11.608;2022-07-21T02:51:08;21.30;93.00
11399;DHT22;5755;48.116;11.608;2022-07-21T02:53:35;21.40;91.90
11399;DHT22;5755;48.116;11.608;2022-07-21T02:56:07;21.50;91.70
11399;DHT22;5755;48.116;11.608;2022-07-21T02:58:34;21.50;91.60
11399;DHT22;5755;48.116;11.608;2022-07-21T03:01:04;21.50;91.30
11399;DHT22;5755;48.116;11.608;2022-07-21T03:03:35;21.60;90.70
11399;DHT22;5755;48.116;11.608;2022-07-21T03:06:02;21.60;90.90
11399;DHT22;5755;48.116;11.608;2022-07-21T03:08:30;21.60;90.60
11399;DHT22;5755;48.116;11.608;2022-07-21T03:11:01;21.60;90.70
11399;DHT22;5755;48.116;11.608;2022-07-21T03:13:29;21.60;90.60
11399;DHT22;5755;48.116;11.608;2022-07-21T03:16:01;21.70;90.40
11399;DHT22;5755;48.116;11.608;2022-07-21T03:18:28;21.80;90.40
11399;DHT22;5755;48.116;11.608;2022-07-21T03:20:57;21.80;90.30
11399;DHT22;5755;48.116;11.608;2022-07-21T03:23:23;21.70;90.50
11399;DHT22;5755;48.116;11.608;2022-07-21T03:26:01;21.80;90.40
11399;DHT22;5755;48.116;11.608;2022-07-21T03:28:28;21.80;90.20
11399;DHT22;5755;48.116;11.608;2022-07-21T03:30:55;21.70;90.60
11399;DHT22;5755;48.116;11.608;2022-07-21T03:33:22;21.70;90.60
11399;DHT22;5755;48.116;11.608;2022-07-21T03:35:49;21.50;91.00
11399;DHT22;5755;48.116;11.608;2022-07-21T03:38:17;21.30;91.80
11399;DHT22;5755;48.116;11.608;2022-07-21T03:40:44;21.30;92.90
11399;DHT22;5755;48.116;11.608;2022-07-21T03:43:11;21.20;92.90
11399;DHT22;5755;48.116;11.608;2022-07-21T03:45:38;21.20;92.90
11399;DHT22;5755;48.116;11.608;2022-07-21T03:48:08;21.30;92.90
11399;DHT22;5755;48.116;11.608;2022-07-21T03:50:37;21.40;92.20
11399;DHT22;5755;48.116;11.608;2022-07-21T03:53:05;21.60;91.50
11399;DHT22;5755;48.116;11.608;2022-07-21T03:55:34;21.70;90.80
11399;DHT22;5755;48.116;11.608;2022-07-21T03:58:04;21.70;90.60
11399;DHT22;5755;48.116;11.608;2022-07-21T04:00:33;21.70;90.90
11399;DHT22;5755;48.116;11.608;2022-07-21T04:03:00;21.50;91.60
11399;DHT22;5755;48.116;11.608;2022-07-21T04:05:28;21.50;91.80
11399;DHT22;5755;48.116;11.608;2022-07-21T04:07:56;21.40;91.80
11399;DHT22;5755;48.116;11.608;2022-07-21T04:10:24;21.30;92.10
11399;DHT22;5755;48.116;11.608;2022-07-21T04:12:54;21.30;92.10
11399;DHT22;5755;48.116;11.608;2022-07-21T04:15:21;21.30;92.10
11399;DHT22;5755;48.116;11.608;2022-07-21T04:17:50;21.30;92.00
11399;DHT22;5755;48.116;11.608;2022-07-21T04:20:17;21.30;92.00
11399;DHT22;5755;48.116;11.608;2022-07-21T04:22:45;21.30;91.90
11399;DHT22;5755;48.116;11.608;2022-07-21T04:25:14;21.50;90.90
11399;DHT22;5755;48.116;11.608;2022-07-21T04:27:41;21.60;90.30
11399;DHT22;5755;48.116;11.608;2022-07-21T04:30:12;21.70;90.60
11399;DHT22;5755;48.116;11.608;2022-07-21T04:32:39;21.50;90.80
11399;DHT22;5755;48.116;11.608;2022-07-21T04:35:07;21.50;90.80
11399;DHT22;5755;48.116;11.608;2022-07-21T04:37:35;21.40;91.20
11399;DHT22;5755;48.116;11.608;2022-07-21T04:40:19;21.40;91.00
11399;DHT22;5755;48.116;11.608;2022-07-21T04:42:46;21.40;90.70
11399;DHT22;5755;48.116;11.608;2022-07-21T04:45:15;21.50;90.30
11399;DHT22;5755;48.116;11.608;2022-07-21T04:47:44;21.40;90.60
11399;DHT22;5755;48.116;11.608;2022-07-21T04:50:11;21.40;90.30
11399;DHT22;5755;48.116;11.608;2022-07-21T04:52:39;21.50;90.40
11399;DHT22;5755;48.116;11.608;2022-07-21T04:55:07;21.60;89.40
11399;DHT22;5755;48.116;11.608;2022-07-21T04:57:36;21.60;90.00
11399;DHT22;5755;48.116;11.608;2022-07-21T05:00:05;21.50;90.00
11399;DHT22;5755;48.116;11.608;2022-07-21T05:02:40;21.50;90.50
11399;DHT22;5755;48.116;11.608;2022-07-21T05:05:07;21.60;89.70
11399;DHT22;5755;48.116;11.608;2022-07-21T05:07:35;21.70;88.10
11399;DHT22;5755;48.116;11.608;2022-07-21T05:10:15;21.70;89.00
11399;DHT22;5755;48.116;11.608;2022-07-21T05:12:43;21.80;88.70
11399;DHT22;5755;48.116;11.608;2022-07-21T05:15:11;21.80;86.50
11399;DHT22;5755;48.116;11.608;2022-07-21T05:17:57;21.70;87.90
11399;DHT22;5755;48.116;11.608;2022-07-21T05:20:31;21.70;87.60
11399;DHT22;5755;48.116;11.608;2022-07-21T05:22:58;21.60;88.50
11399;DHT22;5755;48.116;11.608;2022-07-21T05:25:25;21.80;86.50
11399;DHT22;5755;48.116;11.608;2022-07-21T05:28:01;21.80;86.90
11399;DHT22;5755;48.116;11.608;2022-07-21T05:30:37;22.00;84.30
11399;DHT22;5755;48.116;11.608;2022-07-21T05:33:05;22.00;84.60
11399;DHT22;5755;48.116;11.608;2022-07-21T05:35:32;22.10;84.70
11399;DHT22;5755;48.116;11.608;2022-07-21T05:37:59;22.10;84.70
11399;DHT22;5755;48.116;11.608;2022-07-21T05:40:49;22.10;84.30
11399;DHT22;5755;48.116;11.608;2022-07-21T05:43:16;22.10;84.90
11399;DHT22;5755;48.116;11.608;2022-07-21T05:45:42;22.20;85.30
11399;DHT22;5755;48.116;11.608;2022-07-21T05:48:15;22.20;83.70
11399;DHT22;5755;48.116;11.608;2022-07-21T05:50:42;22.30;83.10
11399;DHT22;5755;48.116;11.608;2022-07-21T05:53:08;22.60;80.40
11399;DHT22;5755;48.116;11.608;2022-07-21T05:55:36;22.90;77.90
11399;DHT22;5755;48.116;11.608;2022-07-21T05:58:03;22.90;78.40
11399;DHT22;5755;48.116;11.608;2022-07-21T06:00:29;23.00;77.30
11399;DHT22;5755;48.116;11.608;2022-07-21T06:03:01;23.10;77.60
11399;DHT22;5755;48.116;11.608;2022-07-21T06:05:33;23.20;75.80
11399;DHT22;5755;48.116;11.608;2022-07-21T06:08:00;23.40;75.20
11399;DHT22;5755;48.116;11.608;2022-07-21T06:10:31;23.40;74.00
11399;DHT22;5755;48.116;11.608;2022-07-21T06:13:07;23.20;73.80
11399;DHT22;5755;48.116;11.608;2022-07-21T06:15:34;23.00;76.60
11399;DHT22;5755;48.116;11.608;2022-07-21T06:18:01;22.90;75.80
11399;DHT22;5755;48.116;11.608;2022-07-21T06:20:28;22.80;76.70
11399;DHT22;5755;48.116;11.608;2022-07-21T06:22:57;22.70;78.10
11399;DHT22;5755;48.116;11.608;2022-07-21T06:25:23;22.70;78.00
11399;DHT22;5755;48.116;11.608;2022-07-21T06:27:51;22.70;77.40
11399;DHT22;5755;48.116;11.608;2022-07-21T06:30:17;22.80;77.90
11399;DHT22;5755;48.116;11.608;2022-07-21T06:32:44;22.70;78.00
11399;DHT22;5755;48.116;11.608;2022-07-21T06:35:11;22.80;77.00
11399;DHT22;5755;48.116;11.608;2022-07-21T06:37:38;22.80;78.50
11399;DHT22;5755;48.116;11.608;2022-07-21T06:40:08;22.70;77.10
11399;DHT22;5755;48.116;11.608;2022-07-21T06:42:43;22.80;77.40
11399;DHT22;5755;48.116;11.608;2022-07-21T06:45:13;22.80;77.60
11399;DHT22;5755;48.116;11.608;2022-07-21T06:47:50;22.90;76.00
11399;DHT22;5755;48.116;11.608;2022-07-21T06:50:16;23.00;76.30
11399;DHT22;5755;48.116;11.608;2022-07-21T06:52:44;22.90;77.70
11399;DHT22;5755;48.116;11.608;2022-07-21T06:55:12;22.70;79.70
11399;DHT22;5755;48.116;11.608;2022-07-21T06:57:39;22.80;79.20
11399;DHT22;5755;48.116;11.608;2022-07-21T07:00:07;22.90;79.10
11399;DHT22;5755;48.116;11.608;2022-07-21T07:02:34;22.90;79.00
11399;DHT22;5755;48.116;11.608;2022-07-21T07:05:02;23.10;79.10
11399;DHT22;5755;48.116;11.608;2022-07-21T07:07:29;23.30;76.70
11399;DHT22;5755;48.116;11.608;2022-07-21T07:09:56;23.50;74.70
11399;DHT22;5755;48.116;11.608;2022-07-21T07:12:26;23.40;74.90
11399;DHT22;5755;48.116;11.608;2022-07-21T07:14:52;23.30;76.00
11399;DHT22;5755;48.116;11.608;2022-07-21T07:17:19;23.20;77.00
11399;DHT22;5755;48.116;11.608;2022-07-21T07:19:47;23.00;77.60
11399;DHT22;5755;48.116;11.608;2022-07-21T07:22:43;23.10;76.60
11399;DHT22;5755;48.116;11.608;2022-07-21T07:25:10;23.00;77.10
11399;DHT22;5755;48.116;11.608;2022-07-21T07:27:38;23.00;77.20
11399;DHT22;5755;48.116;11.608;2022-07-21T07:30:06;23.10;77.00
11399;DHT22;5755;48.116;11.608;2022-07-21T07:32:33;23.30;76.90
11399;DHT22;5755;48.116;11.608;2022-07-21T07:35:00;23.30;77.20
11399;DHT22;5755;48.116;11.608;2022-07-21T07:37:27;23.50;74.60
11399;DHT22;5755;48.116;11.608;2022-07-21T07:39:55;23.60;68.70
11399;DHT22;5755;48.116;11.608;2022-07-21T07:42:22;23.70;68.10
11399;DHT22;5755;48.116;11.608;2022-07-21T07:44:50;23.70;67.20
11399;DHT22;5755;48.116;11.608;2022-07-21T07:47:19;23.80;61.30
11399;DHT22;5755;48.116;11.608;2022-07-21T07:50:02;23.90;62.60
11399;DHT22;5755;48.116;11.608;2022-07-21T07:52:29;24.00;60.70
11399;DHT22;5755;48.116;11.608;2022-07-21T07:54:55;24.00;59.50
11399;DHT22;5755;48.116;11.608;2022-07-21T07:57:22;24.00;59.60
11399;DHT22;5755;48.116;11.608;2022-07-21T07:59:50;24.00;59.70
11399;DHT22;5755;48.116;11.608;2022-07-21T08:02:17;23.90;59.40
11399;DHT22;5755;48.116;11.608;2022-07-21T08:04:44;24.00;60.50
11399;DHT22;5755;48.116;11.608;2022-07-21T08:07:13;24.00;61.00
11399;DHT22;5755;48.116;11.608;2022-07-21T08:09:40;23.90;62.10
11399;DHT22;5755;48.116;11.608;2022-07-21T08:12:07;24.00;59.60
11399;DHT22;5755;48.116;11.608;2022-07-21T08:14:34;24.00;60.30
11399;DHT22;5755;48.116;11.608;2022-07-21T08:17:03;23.80;59.80
11399;DHT22;5755;48.116;11.608;2022-07-21T08:19:29;23.70;61.50
11399;DHT22;5755;48.116;11.608;2022-07-21T08:21:56;23.60;63.30
11399;DHT22;5755;48.116;11.608;2022-07-21T08:24:26;23.60;63.00
11399;DHT22;5755;48.116;11.608;2022-07-21T08:26:53;23.60;64.50
11399;DHT22;5755;48.116;11.608;2022-07-21T08:29:20;23.50;64.10
11399;DHT22;5755;48.116;11.608;2022-07-21T08:31:49;23.50;66.10
11399;DHT22;5755;48.116;11.608;2022-07-21T08:34:18;23.50;67.70
11399;DHT22;5755;48.116;11.608;2022-07-21T08:36:45;23.60;65.50
11399;DHT22;5755;48.116;11.608;2022-07-21T08:39:11;23.60;64.20
11399;DHT22;5755;48.116;11.608;2022-07-21T08:41:40;23.70;64.30
11399;DHT22;5755;48.116;11.608;2022-07-21T08:44:07;23.70;64.90
11399;DHT22;5755;48.116;11.608;2022-07-21T08:46:36;23.80;65.20
11399;DHT22;5755;48.116;11.608;2022-07-21T08:49:04;23.60;63.70
11399;DHT22;5755;48.116;11.608;2022-07-21T08:51:36;23.40;66.50
11399;DHT22;5755;48.116;11.608;2022-07-21T08:54:04;23.30;68.40
11399;DHT22;5755;48.116;11.608;2022-07-21T08:56:31;23.20;66.90
11399;DHT22;5755;48.116;11.608;2022-07-21T08:58:58;23.10;67.90
11399;DHT22;5755;48.116;11.608;2022-07-21T09:01:25;23.00;68.90
11399;DHT22;5755;48.116;11.608;2022-07-21T09:03:52;22.90;70.50
11399;DHT22;5755;48.116;11.608;2022-07-21T09:06:19;23.00;71.00
11399;DHT22;5755;48.116;11.608;2022-07-21T09:08:49;23.00;71.80
11399;DHT22;5755;48.116;11.608;2022-07-21T09:11:21;22.90;71.30
11399;DHT22;5755;48.116;11.608;2022-07-21T09:13:49;22.90;73.40
11399;DHT22;5755;48.116;11.608;2022-07-21T09:16:35;22.90;73.60
11399;DHT22;5755;48.116;11.608;2022-07-21T09:19:03;22.90;73.30
11399;DHT22;5755;48.116;11.608;2022-07-21T09:21:31;22.90;70.50
11399;DHT22;5755;48.116;11.608;2022-07-21T09:24:13;22.80;72.10
11399;DHT22;5755;48.116;11.608;2022-07-21T09:27:10;22.80;71.60
11399;DHT22;5755;48.116;11.608;2022-07-21T09:29:46;22.70;73.60
11399;DHT22;5755;48.116;11.608;2022-07-21T09:32:24;22.60;75.70
11399;DHT22;5755;48.116;11.608;2022-07-21T09:34:52;22.50;77.90
11399;DHT22;5755;48.116;11.608;2022-07-21T09:37:21;22.60;78.10
11399;DHT22;5755;48.116;11.608;2022-07-21T09:39:51;22.50;78.30
11399;DHT22;5755;48.116;11.608;2022-07-21T09:42:22;22.50;78.70
11399;DHT22;5755;48.116;11.608;2022-07-21T09:44:51;22.40;79.70
11399;DHT22;5755;48.116;11.608;2022-07-21T09:47:21;22.30;79.00
11399;DHT22;5755;48.116;11.608;2022-07-21T09:49:48;22.30;79.60
11399;DHT22;5755;48.116;11.608;2022-07-21T09:52:26;22.30;81.40
11399;DHT22;5755;48.116;11.608;2022-07-21T09:54:57;22.40;79.20
11399;DHT22;5755;48.116;11.608;2022-07-21T09:57:25;22.40;78.50
11399;DHT22;5755;48.116;11.608;2022-07-21T09:59:52;22.30;78.80
11399;DHT22;5755;48.116;11.608;2022-07-21T10:02:21;22.30;81.50
11399;DHT22;5755;48.116;11.608;2022-07-21T10:04:57;22.00;85.60
11399;DHT22;5755;48.116;11.608;2022-07-21T10:07:24;21.70;90.70
11399;DHT22;5755;48.116;11.608;2022-07-21T10:09:52;21.50;93.00
11399;DHT22;5755;48.116;11.608;2022-07-21T10:12:25;21.40;93.00
11399;DHT22;5755;48.116;11.608;2022-07-21T10:14:56;21.20;93.80
11399;DHT22;5755;48.116;11.608;2022-07-21T10:17:24;21.20;93.30
11399;DHT22;5755;48.116;11.608;2022-07-21T10:20:01;21.10;94.60
11399;DHT22;5755;48.116;11.608;2022-07-21T10:22:40;21.00;94.30
11399;DHT22;5755;48.116;11.608;2022-07-21T10:25:08;20.90;95.80
11399;DHT22;5755;48.116;11.608;2022-07-21T10:27:37;20.90;95.60
11399;DHT22;5755;48.116;11.608;2022-07-21T10:30:05;20.80;96.50
11399;DHT22;5755;48.116;11.608;2022-07-21T10:32:50;20.80;97.00
11399;DHT22;5755;48.116;11.608;2022-07-21T10:35:28;20.90;96.60
11399;DHT22;5755;48.116;11.608;2022-07-21T10:37:56;21.10;95.10
11399;DHT22;5755;48.116;11.608;2022-07-21T10:40:38;21.30;94.80
11399;DHT22;5755;48.116;11.608;2022-07-21T10:46:33;21.10;96.00
11399;DHT22;5755;48.116;11.608;2022-07-21T10:49:02;21.10;96.60
11399;DHT22;5755;48.116;11.608;2022-07-21T10:51:32;21.10;97.20
11399;DHT22;5755;48.116;11.608;2022-07-21T10:54:23;21.10;97.00
11399;DHT22;5755;48.116;11.608;2022-07-21T10:57:24;21.30;95.60
11399;DHT22;5755;48.116;11.608;2022-07-21T11:00:21;21.50;94.30
11399;DHT22;5755;48.116;11.608;2022-07-21T11:02:52;22.00;93.10
11399;DHT22;5755;48.116;11.608;2022-07-21T11:05:20;22.20;91.90
11399;DHT22;5755;48.116;11.608;2022-07-21T11:08:13;22.20;91.40
11399;DHT22;5755;48.116;11.608;2022-07-21T11:10:41;22.30;91.80
11399;DHT22;5755;48.116;11.608;2022-07-21T11:13:09;22.30;90.70
11399;DHT22;5755;48.116;11.608;2022-07-21T11:15:43;22.10;91.90
11399;DHT22;5755;48.116;11.608;2022-07-21T11:18:16;22.10;92.00
11399;DHT22;5755;48.116;11.608;2022-07-21T11:20:43;22.30;91.30
11399;DHT22;5755;48.116;11.608;2022-07-21T11:23:10;22.40;91.00
11399;DHT22;5755;48.116;11.608;2022-07-21T11:25:37;22.50;90.00
11399;DHT22;5755;48.116;11.608;2022-07-21T11:28:16;22.60;90.20
11399;DHT22;5755;48.116;11.608;2022-07-21T11:30:43;22.60;90.20
11399;DHT22;5755;48.116;11.608;2022-07-21T11:33:11;22.50;91.00
11399;DHT22;5755;48.116;11.608;2022-07-21T11:35:56;22.60;90.30
11399;DHT22;5755;48.116;11.608;2022-07-21T11:38:24;22.50;90.00
11399;DHT22;5755;48.116;11.608;2022-07-21T11:40:51;22.40;90.20
11399;DHT22;5755;48.116;11.608;2022-07-21T11:43:17;22.20;91.30
11399;DHT22;5755;48.116;11.608;2022-07-21T11:45:51;22.10;91.60
11399;DHT22;5755;48.116;11.608;2022-07-21T11:48:31;22.10;91.40
11399;DHT22;5755;48.116;11.608;2022-07-21T11:51:01;22.00;92.20
11399;DHT22;5755;48.116;11.608;2022-07-21T11:53:29;22.10;92.20
11399;DHT22;5755;48.116;11.608;2022-07-21T11:55:56;22.40;90.60
11399;DHT22;5755;48.116;11.608;2022-07-21T11:58:22;22.50;89.00
11399;DHT22;5755;48.116;11.608;2022-07-21T12:01:03;22.60;89.80
11399;DHT22;5755;48.116;11.608;2022-07-21T12:03:32;22.40;90.90
11399;DHT22;5755;48.116;11.608;2022-07-21T12:05:59;22.20;90.60
11399;DHT22;5755;48.116;11.608;2022-07-21T12:08:27;22.40;90.30
11399;DHT22;5755;48.116;11.608;2022-07-21T12:11:05;22.60;87.10
11399;DHT22;5755;48.116;11.608;2022-07-21T12:13:56;22.70;85.30
11399;DHT22;5755;48.116;11.608;2022-07-21T12:16:23;22.50;86.80
11399;DHT22;5755;48.116;11.608;2022-07-21T12:19:10;22.60;86.80
11399;DHT22;5755;48.116;11.608;2022-07-21T12:21:44;22.80;84.60
11399;DHT22;5755;48.116;11.608;2022-07-21T12:24:11;22.80;85.30
11399;DHT22;5755;48.116;11.608;2022-07-21T12:26:44;22.80;84.10
11399;DHT22;5755;48.116;11.608;2022-07-21T12:29:24;22.90;82.90
11399;DHT22;5755;48.116;11.608;2022-07-21T12:31:51;23.20;79.70
11399;DHT22;5755;48.116;11.608;2022-07-21T12:34:20;23.00;82.10
11399;DHT22;5755;48.116;11.608;2022-07-21T12:36:47;23.20;81.10
11399;DHT22;5755;48.116;11.608;2022-07-21T12:39:16;23.20;82.70
11399;DHT22;5755;48.116;11.608;2022-07-21T12:42:05;23.30;81.60
11399;DHT22;5755;48.116;11.608;2022-07-21T12:44:33;23.70;74.10
11399;DHT22;5755;48.116;11.608;2022-07-21T12:47:17;23.60;71.50
11399;DHT22;5755;48.116;11.608;2022-07-21T12:49:59;23.60;73.50
11399;DHT22;5755;48.116;11.608;2022-07-21T12:52:28;23.50;75.30
11399;DHT22;5755;48.116;11.608;2022-07-21T12:54:55;23.50;77.10
11399;DHT22;5755;48.116;11.608;2022-07-21T12:57:27;23.50;75.30
11399;DHT22;5755;48.116;11.608;2022-07-21T12:59:54;23.60;75.50
11399;DHT22;5755;48.116;11.608;2022-07-21T13:02:45;23.50;77.00
11399;DHT22;5755;48.116;11.608;2022-07-21T13:05:13;23.50;74.10
11399;DHT22;5755;48.116;11.608;2022-07-21T13:07:40;23.70;69.40
11399;DHT22;5755;48.116;11.608;2022-07-21T13:10:07;24.10;65.50
11399;DHT22;5755;48.116;11.608;2022-07-21T13:12:34;24.30;66.40
11399;DHT22;5755;48.116;11.608;2022-07-21T13:15:02;24.50;65.30
11399;DHT22;5755;48.116;11.608;2022-07-21T13:17:29;24.40;66.40
11399;DHT22;5755;48.116;11.608;2022-07-21T13:19:56;24.30;63.20
11399;DHT22;5755;48.116;11.608;2022-07-21T13:22:24;24.30;64.90
11399;DHT22;5755;48.116;11.608;2022-07-21T13:24:56;24.20;68.90
11399;DHT22;5755;48.116;11.608;2022-07-21T13:27:23;23.80;63.30
11399;DHT22;5755;48.116;11.608;2022-07-21T13:29:49;23.60;64.90
11399;DHT22;5755;48.116;11.608;2022-07-21T13:32:16;23.50;65.20
11399;DHT22;5755;48.116;11.608;2022-07-21T13:34:43;23.50;72.00
11399;DHT22;5755;48.116;11.608;2022-07-21T13:37:10;23.40;68.90
11399;DHT22;5755;48.116;11.608;2022-07-21T13:39:51;23.30;68.30
11399;DHT22;5755;48.116;11.608;2022-07-21T13:42:18;23.30;69.20
11399;DHT22;5755;48.116;11.608;2022-07-21T13:44:50;23.50;72.40
11399;DHT22;5755;48.116;11.608;2022-07-21T13:47:17;23.50;69.00
11399;DHT22;5755;48.116;11.608;2022-07-21T13:49:44;23.70;66.10
11399;DHT22;5755;48.116;11.608;2022-07-21T13:52:11;23.60;70.90
11399;DHT22;5755;48.116;11.608;2022-07-21T13:54:38;23.60;71.60
11399;DHT22;5755;48.116;11.608;2022-07-21T13:57:06;23.70;69.10
11399;DHT22;5755;48.116;11.608;2022-07-21T13:59:33;23.80;64.60
11399;DHT22;5755;48.116;11.608;2022-07-21T14:02:00;23.90;60.70
11399;DHT22;5755;48.116;11.608;2022-07-21T14:04:32;23.90;59.40
11399;DHT22;5755;48.116;11.608;2022-07-21T14:07:02;24.00;62.00
11399;DHT22;5755;48.116;11.608;2022-07-21T14:09:29;24.00;59.60
11399;DHT22;5755;48.116;11.608;2022-07-21T14:11:56;24.10;59.80
11399;DHT22;5755;48.116;11.608;2022-07-21T14:14:25;24.20;61.90
11399;DHT22;5755;48.116;11.608;2022-07-21T14:17:08;24.20;59.70
11399;DHT22;5755;48.116;11.608;2022-07-21T14:19:38;24.20;59.70
11399;DHT22;5755;48.116;11.608;2022-07-21T14:22:05;24.30;59.80
11399;DHT22;5755;48.116;11.608;2022-07-21T14:24:31;24.20;57.40
11399;DHT22;5755;48.116;11.608;2022-07-21T14:27:16;24.30;59.80
11399;DHT22;5755;48.116;11.608;2022-07-21T14:29:44;24.40;59.90
11399;DHT22;5755;48.116;11.608;2022-07-21T14:32:11;24.50;59.20
11399;DHT22;5755;48.116;11.608;2022-07-21T14:34:44;24.70;60.20
11399;DHT22;5755;48.116;11.608;2022-07-21T14:37:11;24.80;56.00
11399;DHT22;5755;48.116;11.608;2022-07-21T14:39:38;24.80;55.90
11399;DHT22;5755;48.116;11.608;2022-07-21T14:42:05;24.90;53.50
11399;DHT22;5755;48.116;11.608;2022-07-21T14:44:32;24.70;55.40
11399;DHT22;5755;48.116;11.608;2022-07-21T14:47:00;24.60;54.60
11399;DHT22;5755;48.116;11.608;2022-07-21T14:49:26;24.40;55.40
11399;DHT22;5755;48.116;11.608;2022-07-21T14:51:56;24.30;56.70
11399;DHT22;5755;48.116;11.608;2022-07-21T14:54:23;24.10;56.30
11399;DHT22;5755;48.116;11.608;2022-07-21T14:56:50;23.90;59.40
11399;DHT22;5755;48.116;11.608;2022-07-21T14:59:29;24.00;59.60
11399;DHT22;5755;48.116;11.608;2022-07-21T15:02:03;24.10;56.80
11399;DHT22;5755;48.116;11.608;2022-07-21T15:04:30;24.40;56.30
11399;DHT22;5755;48.116;11.608;2022-07-21T15:06:57;24.40;59.10
11399;DHT22;5755;48.116;11.608;2022-07-21T15:09:24;24.60;55.90
11399;DHT22;5755;48.116;11.608;2022-07-21T15:11:51;24.50;54.30
11399;DHT22;5755;48.116;11.608;2022-07-21T15:14:17;24.60;55.80
11399;DHT22;5755;48.116;11.608;2022-07-21T15:16:44;24.70;54.40
11399;DHT22;5755;48.116;11.608;2022-07-21T15:19:12;24.70;52.00
11399;DHT22;5755;48.116;11.608;2022-07-21T15:21:39;24.60;53.50
11399;DHT22;5755;48.116;11.608;2022-07-21T15:24:07;24.60;53.10
11399;DHT22;5755;48.116;11.608;2022-07-21T15:26:34;24.60;51.90
11399;DHT22;5755;48.116;11.608;2022-07-21T15:29:01;24.50;51.00
11399;DHT22;5755;48.116;11.608;2022-07-21T15:31:30;24.70;52.70
11399;DHT22;5755;48.116;11.608;2022-07-21T15:33:57;24.80;54.70
11399;DHT22;5755;48.116;11.608;2022-07-21T15:36:25;24.60;52.00
11399;DHT22;5755;48.116;11.608;2022-07-21T15:38:52;24.70;53.30
11399;DHT22;5755;48.116;11.608;2022-07-21T15:41:19;24.90;54.60
11399;DHT22;5755;48.116;11.608;2022-07-21T15:43:46;25.00;49.70
11399;DHT22;5755;48.116;11.608;2022-07-21T15:46:13;25.00;50.40
11399;DHT22;5755;48.116;11.608;2022-07-21T15:48:40;24.80;49.20